createdAt,value
2022-11-10T00:02:13.504Z,100.00
2022-11-10T00:07:34.289Z,100.00
2022-11-10T00:12:55.260Z,100.00
2022-11-10T00:18:16.240Z,100.00
2022-11-10T00:23:37.135Z,100.00
2022-11-10T00:28:57.915Z,100.00
2022-11-10T00:34:18.787Z,100.00
2022-11-10T00:39:39.827Z,100.00
2022-11-10T00:45:00.736Z,100.00
2022-11-10T00:50:21.957Z,100.00
2022-11-10T00:55:42.515Z,100.00
2022-11-10T01:01:05.073Z,100.00
2022-11-10T01:06:26.037Z,100.00
2022-11-10T01:11:46.931Z,100.00
2022-11-10T01:17:07.696Z,100.00
2022-11-10T01:22:28.548Z,100.00
2022-11-10T01:27:49.357Z,100.00
2022-11-10T01:33:10.041Z,100.00
2022-11-10T01:38:33.553Z,100.00
2022-11-10T01:43:54.263Z,100.00
2022-11-10T01:49:19.820Z,100.00
2022-11-10T01:54:50.002Z,100.00
2022-11-10T02:00:11.978Z,100.00
2022-11-10T02:05:32.832Z,100.00
2022-11-10T02:10:53.551Z,100.00
2022-11-10T02:16:14.252Z,100.00
2022-11-10T02:21:35.282Z,100.00
2022-11-10T02:26:57.731Z,100.00
2022-11-10T02:32:18.553Z,100.00
2022-11-10T02:37:39.416Z,100.00
2022-11-10T02:43:00.170Z,100.00
2022-11-10T02:48:21.177Z,100.00
2022-11-10T02:53:41.875Z,100.00
2022-11-10T02:59:03.606Z,100.00
2022-11-10T03:04:24.141Z,100.00
2022-11-10T03:09:45.020Z,100.00
2022-11-10T03:15:06.017Z,100.00
2022-11-10T03:20:26.585Z,100.00
2022-11-10T03:25:47.467Z,100.00
2022-11-10T03:31:08.347Z,100.00
2022-11-10T03:36:29.342Z,100.00
2022-11-10T03:41:50.012Z,100.00
2022-11-10T03:47:11.089Z,100.00
2022-11-10T03:52:31.952Z,100.00
2022-11-10T03:57:52.677Z,100.00
2022-11-10T04:03:13.458Z,100.00
2022-11-10T04:08:52.732Z,100.00
2022-11-10T04:14:32.496Z,100.00
2022-11-10T04:19:53.132Z,100.00
2022-11-10T04:25:14.043Z,100.00
2022-11-10T04:30:34.739Z,100.00
2022-11-10T04:35:55.661Z,100.00
2022-11-10T04:41:17.004Z,100.00
2022-11-10T04:46:40.039Z,100.00
2022-11-10T04:52:00.616Z,100.00
2022-11-10T04:57:21.511Z,100.00
2022-11-10T05:02:42.403Z,100.00
2022-11-10T05:08:04.452Z,100.00
2022-11-10T05:13:25.128Z,100.00
2022-11-10T05:18:45.950Z,100.00
2022-11-10T05:24:07.068Z,100.00
2022-11-10T05:29:27.524Z,100.00
2022-11-10T05:34:48.702Z,100.00
2022-11-10T05:40:09.902Z,100.00
2022-11-10T05:45:33.529Z,100.00
2022-11-10T05:50:53.939Z,100.00
2022-11-10T05:56:14.848Z,100.00
2022-11-10T06:01:35.772Z,100.00
2022-11-10T06:07:00.162Z,100.00
2022-11-10T06:12:25.992Z,100.00
2022-11-10T06:17:47.141Z,100.00
2022-11-10T06:23:11.400Z,100.00
2022-11-10T06:28:32.476Z,100.00
2022-11-10T06:33:53.390Z,100.00
2022-11-10T06:39:14.420Z,100.00
2022-11-10T06:44:35.191Z,100.00
2022-11-10T06:49:55.953Z,100.00
2022-11-10T06:55:16.980Z,100.00
2022-11-10T07:00:37.922Z,93.95
2022-11-10T07:05:58.724Z,58.43
2022-11-10T07:11:20.412Z,40.52
2022-11-10T07:16:41.071Z,37.15
2022-11-10T07:22:05.456Z,35.02
2022-11-10T07:27:28.784Z,35.38
2022-11-10T07:33:11.292Z,37.08
2022-11-10T07:38:31.901Z,38.40
2022-11-10T07:43:52.802Z,41.68
2022-11-10T07:49:13.639Z,41.88
2022-11-10T07:54:34.661Z,42.83
2022-11-10T07:59:57.905Z,42.40
2022-11-10T08:05:19.549Z,41.24
2022-11-10T08:10:41.805Z,43.66
2022-11-10T08:16:03.353Z,44.29
2022-11-10T08:21:24.013Z,42.84
2022-11-10T08:26:44.722Z,43.03
2022-11-10T08:32:05.438Z,42.58
2022-11-10T08:37:28.216Z,41.52
2022-11-10T08:42:49.494Z,40.92
2022-11-10T08:48:13.542Z,38.89
2022-11-10T08:53:34.288Z,38.46
2022-11-10T08:58:55.155Z,37.15
2022-11-10T09:04:16.110Z,35.95
2022-11-10T09:09:37.144Z,32.91
2022-11-10T09:14:57.837Z,32.42
2022-11-10T09:20:19.048Z,31.02
2022-11-10T09:25:40.805Z,30.65
2022-11-10T09:31:01.848Z,30.68
2022-11-10T09:36:22.721Z,30.98
2022-11-10T09:41:45.229Z,30.88
2022-11-10T09:47:42.435Z,31.42
2022-11-10T09:53:02.033Z,30.95
2022-11-10T09:58:27.332Z,30.87
2022-11-10T10:03:58.253Z,31.24
2022-11-10T10:09:42.650Z,31.37
2022-11-10T10:15:38.553Z,30.75
2022-11-10T10:21:25.195Z,30.06
2022-11-10T10:26:53.588Z,31.09
2022-11-10T10:32:15.532Z,30.49
2022-11-10T10:37:51.654Z,30.89
2022-11-10T10:43:12.788Z,32.10
2022-11-10T10:48:34.019Z,33.59
2022-11-10T10:53:54.303Z,34.50
2022-11-10T10:59:23.038Z,35.40
2022-11-10T11:04:43.909Z,37.32
2022-11-10T11:10:17.499Z,36.52
2022-11-10T11:15:38.124Z,36.91
2022-11-10T11:21:17.593Z,37.27
2022-11-10T11:27:04.312Z,38.25
2022-11-10T11:32:24.956Z,38.76
2022-11-10T11:38:07.609Z,40.65
2022-11-10T11:43:36.408Z,40.94
2022-11-10T11:49:43.659Z,41.56
2022-11-10T11:55:26.180Z,41.76
2022-11-10T12:01:04.445Z,42.60
2022-11-10T12:06:33.206Z,43.11
2022-11-10T12:12:12.132Z,43.39
2022-11-10T12:17:40.445Z,42.90
2022-11-10T12:23:23.504Z,43.52
2022-11-10T12:29:01.121Z,44.68
2022-11-10T12:34:40.981Z,44.34
2022-11-10T12:40:18.159Z,44.57
2022-11-10T12:45:51.755Z,44.89
2022-11-10T12:51:30.199Z,44.89
2022-11-10T12:56:56.676Z,45.19
2022-11-10T13:02:20.757Z,45.58
2022-11-10T13:07:44.483Z,45.44
2022-11-10T13:13:05.207Z,46.15
2022-11-10T13:18:31.917Z,45.83
2022-11-10T13:23:52.744Z,46.97
2022-11-10T13:29:32.309Z,46.94
2022-11-10T13:34:54.132Z,47.53
2022-11-10T13:40:18.108Z,48.90
2022-11-10T13:45:44.324Z,49.12
2022-11-10T13:51:12.291Z,50.32
2022-11-10T13:56:52.842Z,51.75
2022-11-10T14:02:36.904Z,53.33
2022-11-10T14:08:07.357Z,54.74
2022-11-10T14:13:50.014Z,55.34
2022-11-10T14:19:37.895Z,55.85
2022-11-10T14:25:24.243Z,57.67
2022-11-10T14:30:52.515Z,57.73
2022-11-10T14:36:14.247Z,58.12
2022-11-10T14:41:35.050Z,59.17
2022-11-10T14:46:56.879Z,59.69
2022-11-10T14:52:17.941Z,59.64
2022-11-10T14:57:39.873Z,60.42
2022-11-10T15:03:01.182Z,62.53
2022-11-10T15:08:26.022Z,63.09
2022-11-10T15:13:46.609Z,64.73
2022-11-10T15:19:28.699Z,65.82
2022-11-10T15:24:52.794Z,68.25
2022-11-10T15:30:32.157Z,72.04
2022-11-10T15:35:53.927Z,74.64
2022-11-10T15:41:26.809Z,76.42
2022-11-10T15:46:51.846Z,79.58
2022-11-10T15:52:23.130Z,80.34
2022-11-10T15:57:45.063Z,83.14
2022-11-10T16:03:09.962Z,84.14
2022-11-10T16:08:32.436Z,82.21
2022-11-10T16:13:53.708Z,85.07
2022-11-10T16:19:14.538Z,83.94
2022-11-10T16:24:35.007Z,90.34
2022-11-10T16:29:55.972Z,92.36
2022-11-10T16:35:16.708Z,94.10
2022-11-10T16:40:37.786Z,100.00
2022-11-10T16:46:02.429Z,95.41
2022-11-10T16:51:48.539Z,94.26
2022-11-10T16:57:14.255Z,100.00
2022-11-10T17:02:37.300Z,100.00
2022-11-10T17:07:59.527Z,100.00
2022-11-10T17:13:19.968Z,97.08
2022-11-10T17:18:41.026Z,100.00
2022-11-10T17:24:03.234Z,100.00
2022-11-10T17:29:24.710Z,100.00
2022-11-10T17:34:45.610Z,100.00
2022-11-10T17:40:18.305Z,100.00
2022-11-10T17:45:39.583Z,100.00
2022-11-10T17:51:01.161Z,100.00
2022-11-10T17:56:21.990Z,100.00
2022-11-10T18:01:42.901Z,100.00
2022-11-10T18:07:03.757Z,100.00
2022-11-10T18:12:27.961Z,100.00
2022-11-10T18:17:49.086Z,100.00
2022-11-10T18:23:12.730Z,100.00
2022-11-10T18:28:34.818Z,100.00
2022-11-10T18:33:55.719Z,100.00
2022-11-10T18:39:16.515Z,100.00
2022-11-10T18:44:38.157Z,100.00
2022-11-10T18:49:58.778Z,100.00
2022-11-10T18:55:20.380Z,100.00
2022-11-10T19:00:41.384Z,100.00
2022-11-10T19:06:02.129Z,100.00
2022-11-10T19:11:23.031Z,100.00
2022-11-10T19:16:43.737Z,100.00
2022-11-10T19:22:04.805Z,100.00
2022-11-10T19:27:25.635Z,100.00
2022-11-10T19:32:46.732Z,100.00
2022-11-10T19:38:07.589Z,100.00
2022-11-10T19:43:30.176Z,100.00
2022-11-10T19:48:51.027Z,100.00
2022-11-10T19:54:13.787Z,100.00
2022-11-10T19:59:34.703Z,100.00
2022-11-10T20:05:13.719Z,100.00
2022-11-10T20:10:34.611Z,100.00
2022-11-10T20:15:55.510Z,100.00
2022-11-10T20:21:21.001Z,100.00
2022-11-10T20:26:41.794Z,100.00
2022-11-10T20:32:03.432Z,100.00
2022-11-10T20:37:24.063Z,100.00
2022-11-10T20:48:25.326Z,100.00
2022-11-10T20:53:47.282Z,100.00
2022-11-10T20:59:07.951Z,100.00
2022-11-10T21:04:29.269Z,100.00
2022-11-10T21:09:50.115Z,100.00
2022-11-10T21:15:10.932Z,100.00
2022-11-10T21:20:33.412Z,100.00
2022-11-10T21:26:00.769Z,100.00
2022-11-10T21:31:21.748Z,100.00
2022-11-10T21:36:42.731Z,100.00
2022-11-10T21:42:03.353Z,100.00
2022-11-10T21:47:24.317Z,100.00
2022-11-10T21:52:45.240Z,100.00
2022-11-10T21:58:06.225Z,100.00
2022-11-10T22:03:29.230Z,100.00
2022-11-10T22:08:50.200Z,100.00
2022-11-10T22:14:20.092Z,100.00
2022-11-10T22:19:41.195Z,100.00
2022-11-10T22:25:01.726Z,100.00
2022-11-10T22:30:22.694Z,100.00
2022-11-10T22:35:43.538Z,100.00
2022-11-10T22:41:23.988Z,100.00
2022-11-10T22:46:48.298Z,100.00
2022-11-10T22:52:09.013Z,100.00
2022-11-10T22:57:29.686Z,100.00
2022-11-10T23:02:52.581Z,100.00
2022-11-10T23:08:13.347Z,100.00
2022-11-10T23:13:36.060Z,100.00
2022-11-10T23:19:10.545Z,100.00
2022-11-10T23:24:31.543Z,100.00
2022-11-10T23:29:52.342Z,100.00
2022-11-10T23:35:13.147Z,100.00
2022-11-10T23:40:34.091Z,100.00
2022-11-10T23:46:10.558Z,100.00
2022-11-10T23:51:31.252Z,100.00
2022-11-10T23:56:52.080Z,100.00
